Time;durP1;ratioP1;P1;durP2;ratioP2;P2;SDS_P1;SDS_P2;PMS_P1;PMS_P2;Temp;Humidity;BMP_temperature;BMP_pressure;BME280_temperature;BME280_humidity;BME280_pressure;Samples;Min_cycle;Max_cycle;Signal;HPM_P1;HPM_P2
2022/05/20 00:01:30;;;;;;;7.30;2.50;;;;;8.40;98452.60;;;;110934;1251;41138;-75
2022/05/20 00:04:00;;;;;;;6.80;2.70;;;;;8.38;98445.60;;;;110987;1250;41433;-74
2022/05/20 00:06:29;;;;;;;8.00;2.60;;;;;8.40;98449.80;;;;110991;1249;41142;-74
2022/05/20 00:08:59;;;;;;;6.10;2.40;;;;;8.30;98448.80;;;;110739;1253;41984;-74
2022/05/20 00:11:29;;;;;;;7.30;2.30;;;;;8.30;98450.20;;;;110857;1251;41165;-78
2022/05/20 00:13:59;;;;;;;6.20;2.70;;;;;8.20;98448.80;;;;110784;1253;41620;-74
2022/05/20 00:16:29;;;;;;;10.30;2.70;;;;;8.22;98451.80;;;;110994;1250;41866;-77
2022/05/20 00:18:59;;;;;;;6.00;2.30;;;;;8.20;98458.20;;;;110770;1252;41179;-74
2022/05/20 00:21:29;;;;;;;6.00;2.10;;;;;8.20;98458.60;;;;110879;1250;41957;-78
2022/05/20 00:24:00;;;;;;;5.50;2.20;;;;;8.10;98457.80;;;;110711;1251;41159;-74
2022/05/20 00:26:29;;;;;;;5.80;1.90;;;;;8.10;98453.60;;;;110916;1250;41611;-79
2022/05/20 00:29:00;;;;;;;5.90;2.20;;;;;8.10;98453.00;;;;110773;1251;42040;-74
2022/05/20 00:31:29;;;;;;;5.30;2.10;;;;;8.06;98452.80;;;;110794;1251;42237;-75
2022/05/20 00:34:00;;;;;;;5.80;2.40;;;;;8.00;98451.20;;;;110857;1250;41730;-74
2022/05/20 00:36:31;;;;;;;6.30;2.20;;;;;8.00;98447.40;;;;111010;1251;41436;-74
2022/05/20 00:39:01;;;;;;;5.90;2.20;;;;;7.98;98446.20;;;;110941;1250;42557;-73
2022/05/20 00:41:31;;;;;;;6.70;2.20;;;;;7.90;98447.60;;;;110875;1250;41707;-78
2022/05/20 00:44:00;;;;;;;6.20;2.30;;;;;7.88;98446.20;;;;110909;1250;41131;-74
2022/05/20 00:46:29;;;;;;;9.10;2.60;;;;;7.80;98451.40;;;;110934;1251;41146;-73
2022/05/20 00:49:02;;;;;;;8.70;2.80;;;;;7.80;98448.80;;;;110910;1250;41156;-72
2022/05/20 00:51:36;;;;;;;7.30;2.40;;;;;7.80;98456.40;;;;110975;1251;41151;-74
2022/05/20 00:54:20;;;;;;;7.00;2.60;;;;;7.80;98455.00;;;;111004;1251;40744;-75
2022/05/20 00:57:01;;;;;;;5.60;2.40;;;;;7.80;98464.00;;;;110944;1250;41145;-80
2022/05/20 00:59:33;;;;;;;8.70;2.70;;;;;7.70;98461.00;;;;110970;1250;41155;-75
2022/05/20 01:02:15;;;;;;;7.20;2.70;;;;;7.70;98462.40;;;;110967;1250;41847;-75
2022/05/20 01:04:56;;;;;;;8.00;3.00;;;;;7.70;98459.20;;;;110934;1251;42021;-72
2022/05/20 01:07:29;;;;;;;7.20;2.70;;;;;7.64;98465.00;;;;110876;1250;41142;-72
2022/05/20 01:10:01;;;;;;;8.30;3.00;;;;;7.60;98467.80;;;;110939;1250;41251;-73
2022/05/20 01:12:31;;;;;;;9.50;3.00;;;;;7.60;98467.40;;;;110964;1250;41298;-74
2022/05/20 01:15:04;;;;;;;7.20;2.80;;;;;7.60;98464.60;;;;110863;1251;41959;-73
2022/05/20 01:17:34;;;;;;;7.70;2.60;;;;;7.60;98469.60;;;;110956;1250;41934;-73
2022/05/20 01:20:08;;;;;;;9.80;3.60;;;;;7.50;98472.80;;;;110884;1251;41146;-73
2022/05/20 01:22:40;;;;;;;8.50;3.30;;;;;7.50;98474.00;;;;111039;1250;41318;-75
2022/05/20 01:25:11;;;;;;;8.80;3.40;;;;;7.50;98479.20;;;;110831;1250;41143;-73
2022/05/20 01:27:42;;;;;;;7.90;3.30;;;;;7.50;98476.80;;;;110992;1250;41255;-74
2022/05/20 01:30:16;;;;;;;7.90;3.20;;;;;7.40;98477.20;;;;110995;1250;41360;-76
2022/05/20 01:32:46;;;;;;;7.50;2.80;;;;;7.40;98476.20;;;;110907;1250;41141;-77
2022/05/20 01:35:38;;;;;;;8.20;2.80;;;;;7.30;98477.00;;;;110953;1250;41251;-75
2022/05/20 01:38:08;;;;;;;;;;;;;7.20;98479.20;;;;110987;1250;41271;-75
2022/05/20 01:40:52;;;;;;;10.20;3.40;;;;;7.10;98477.40;;;;110974;1250;41146;-75
2022/05/20 01:43:36;;;;;;;8.40;3.20;;;;;7.10;98475.60;;;;110977;1250;41352;-79
2022/05/20 01:46:12;;;;;;;9.70;2.80;;;;;7.00;98476.60;;;;110990;1250;41642;-76
2022/05/20 01:49:03;;;;;;;6.70;2.60;;;;;7.00;98474.20;;;;110931;1250;41717;-73
2022/05/20 01:51:59;;;;;;;7.90;2.80;;;;;7.00;98474.80;;;;110753;1251;41193;-77
2022/05/20 01:54:47;;;;;;;6.90;2.80;;;;;6.92;98478.80;;;;110920;1251;41757;-79
2022/05/20 01:57:40;;;;;;;7.20;2.60;;;;;6.90;98473.80;;;;110780;1251;41612;-77
2022/05/20 02:00:12;;;;;;;5.80;2.30;;;;;6.90;98469.80;;;;110966;1250;41270;-79
2022/05/20 02:03:15;;;;;;;8.90;2.50;;;;;6.90;98467.40;;;;110954;1251;41252;-74
2022/05/20 02:05:46;;;;;;;7.30;2.40;;;;;6.90;98467.00;;;;110961;1250;41212;-80
2022/05/20 02:08:30;;;;;;;6.60;2.50;;;;;6.90;98464.00;;;;110824;1250;41142;-74
2022/05/20 02:11:12;;;;;;;6.00;2.50;;;;;6.90;98468.60;;;;110925;1250;41131;-78
2022/05/20 02:14:08;;;;;;;8.80;3.10;;;;;6.88;98466.00;;;;110969;1251;41153;-74
2022/05/20 02:16:41;;;;;;;8.00;2.80;;;;;6.80;98464.40;;;;110969;1250;41647;-73
2022/05/20 02:19:20;;;;;;;8.00;2.60;;;;;6.80;98468.20;;;;110755;1253;41183;-77
2022/05/20 02:21:54;;;;;;;6.80;2.70;;;;;6.80;98462.40;;;;110999;1249;41139;-74
2022/05/20 02:24:27;;;;;;;7.90;3.10;;;;;6.80;98460.60;;;;110785;1252;41153;-79
2022/05/20 02:27:02;;;;;;;9.70;3.20;;;;;6.80;98456.80;;;;110835;1251;41204;-79
2022/05/20 02:29:58;;;;;;;12.70;2.80;;;;;6.74;98456.80;;;;110993;1250;41408;-79
2022/05/20 02:32:34;;;;;;;7.10;2.60;;;;;6.70;98460.80;;;;110729;1253;41887;-77
2022/05/20 02:35:05;;;;;;;7.90;2.90;;;;;6.70;98460.20;;;;110773;1250;41598;-80
2022/05/20 02:37:37;;;;;;;6.50;2.60;;;;;6.68;98460.20;;;;110866;1250;41153;-77
2022/05/20 02:40:11;;;;;;;8.30;2.90;;;;;6.60;98465.40;;;;110868;1251;42448;-80
2022/05/20 02:42:40;;;;;;;7.80;2.90;;;;;6.60;98466.80;;;;110998;1251;41152;-77
2022/05/20 02:45:11;;;;;;;7.10;2.60;;;;;6.60;98462.80;;;;111000;1250;41153;-82
2022/05/20 02:47:40;;;;;;;6.60;2.50;;;;;6.60;98466.20;;;;110997;1251;41129;-80
2022/05/20 02:50:11;;;;;;;5.30;2.20;;;;;6.60;98474.20;;;;110909;1250;41265;-77
2022/05/20 02:52:41;;;;;;;6.90;2.40;;;;;6.60;98473.20;;;;110945;1250;41314;-77
2022/05/20 02:55:11;;;;;;;6.10;2.40;;;;;6.58;98467.00;;;;110790;1251;41139;-77
2022/05/20 02:57:42;;;;;;;8.10;2.90;;;;;6.58;98462.80;;;;111029;1250;41154;-76
2022/05/20 03:05:49;;;;;;;6.90;2.80;;;;;6.52;98471.20;;;;110800;1251;41229;-79
2022/05/20 03:08:19;;;;;;;8.40;2.90;;;;;6.60;98475.60;;;;110966;1252;40901;-77
2022/05/20 03:10:49;;;;;;;8.50;2.80;;;;;6.60;98474.80;;;;110870;1251;41626;-79
2022/05/20 03:13:19;;;;;;;8.00;3.00;;;;;6.60;98476.00;;;;110966;1250;41145;-70
2022/05/20 03:15:48;;;;;;;10.50;3.80;;;;;6.60;98475.40;;;;110949;1250;41193;-77
2022/05/20 03:18:17;;;;;;;9.70;3.60;;;;;6.70;98471.00;;;;110958;1250;41040;-79
2022/05/20 03:20:47;;;;;;;9.80;3.10;;;;;6.70;98470.00;;;;110734;1250;41160;-81
2022/05/20 03:23:17;;;;;;;8.80;2.90;;;;;6.70;98472.40;;;;110943;1251;41139;-75
2022/05/20 03:25:47;;;;;;;8.30;2.90;;;;;6.70;98472.60;;;;111010;1251;41324;-73
2022/05/20 03:28:18;;;;;;;8.80;2.50;;;;;6.70;98470.40;;;;110960;1250;41882;-79
2022/05/20 03:30:49;;;;;;;;;;;;;6.70;98470.20;;;;110915;1250;41909;-76
2022/05/20 03:33:18;;;;;;;6.60;2.60;;;;;6.70;98476.80;;;;110935;1252;41723;-79
2022/05/20 03:35:48;;;;;;;6.50;2.60;;;;;6.70;98476.60;;;;110616;1251;41245;-74
2022/05/20 03:38:17;;;;;;;5.90;2.40;;;;;6.80;98480.20;;;;110945;1250;41131;-77
2022/05/20 03:40:46;;;;;;;9.50;2.50;;;;;6.80;98478.00;;;;110969;1250;41156;-77
2022/05/20 03:43:15;;;;;;;6.90;2.50;;;;;6.88;98478.40;;;;110946;1250;41891;-76
2022/05/20 03:45:45;;;;;;;7.10;2.70;;;;;6.90;98481.20;;;;110859;1250;41167;-75
2022/05/20 03:48:15;;;;;;;7.60;2.80;;;;;7.00;98486.00;;;;110685;1252;41149;-76
2022/05/20 03:50:49;;;;;;;7.40;2.70;;;;;7.02;98483.80;;;;110930;1250;41378;-76
2022/05/20 03:53:18;;;;;;;9.40;2.80;;;;;7.10;98490.40;;;;110760;1252;41157;-73
2022/05/20 03:55:47;;;;;;;8.70;2.70;;;;;7.20;98489.80;;;;110974;1250;41259;-74
2022/05/20 03:58:16;;;;;;;9.40;2.90;;;;;7.34;98489.00;;;;110944;1251;42033;-80
2022/05/20 04:03:32;;;;;;;6.20;2.50;;;;;7.84;98486.60;;;;110955;1251;41150;-73
2022/05/20 04:06:01;;;;;;;10.40;3.20;;;;;8.56;98473.40;;;;110743;1250;41164;-76
2022/05/20 04:08:31;;;;;;;12.10;3.70;;;;;9.52;98460.80;;;;110970;1250;41647;-75
2022/05/20 04:10:59;;;;;;;8.30;3.60;;;;;10.36;98458.00;;;;110955;1250;41153;-75
2022/05/20 04:13:28;;;;;;;11.50;3.80;;;;;11.02;98460.40;;;;110927;1250;41599;-76
2022/05/20 04:15:58;;;;;;;10.10;3.90;;;;;11.70;98456.20;;;;110926;1250;41250;-75
2022/05/20 04:18:27;;;;;;;11.00;3.70;;;;;12.20;98453.80;;;;110967;1250;41131;-75
2022/05/20 04:20:56;;;;;;;11.90;3.90;;;;;12.80;98452.60;;;;110868;1250;41320;-74
2022/05/20 04:23:25;;;;;;;7.50;3.00;;;;;13.40;98443.20;;;;110988;1252;41711;-75
2022/05/20 04:25:54;;;;;;;9.40;3.70;;;;;14.00;98435.60;;;;110914;1252;41161;-74
2022/05/20 04:28:23;;;;;;;8.10;2.90;;;;;14.50;98433.60;;;;110930;1250;41137;-74
2022/05/20 04:30:56;;;;;;;6.80;2.80;;;;;15.24;98428.20;;;;110926;1250;41542;-74
2022/05/20 04:33:26;;;;;;;10.70;3.10;;;;;16.02;98432.60;;;;110774;1251;41620;-75
2022/05/20 04:35:55;;;;;;;7.70;2.90;;;;;16.60;98429.00;;;;110813;1251;41158;-74
2022/05/20 04:38:25;;;;;;;10.20;3.00;;;;;17.28;98422.00;;;;110820;1251;41510;-75
2022/05/20 04:49:17;;;;;;;7.30;2.80;;;;;19.32;98426.00;;;;110950;1251;41146;-76
2022/05/20 04:51:45;;;;;;;10.80;3.40;;;;;19.86;98420.60;;;;110894;1250;40897;-77
2022/05/20 04:57:02;;;;;;;10.10;2.90;;;;;20.40;98415.60;;;;110913;1250;41128;-74
2022/05/20 04:59:38;;;;;;;7.30;2.60;;;;;20.68;98417.40;;;;110744;1252;41370;-71
2022/05/20 05:02:08;;;;;;;6.10;2.50;;;;;20.84;98419.40;;;;110945;1250;41196;-72
2022/05/20 05:04:37;;;;;;;6.70;2.60;;;;;20.62;98420.40;;;;110742;1251;41920;-74
2022/05/20 05:07:09;;;;;;;7.20;2.70;;;;;20.78;98417.40;;;;110822;1252;41377;-71
2022/05/20 05:09:40;;;;;;;11.00;3.30;;;;;21.12;98419.00;;;;110829;1250;41942;-73
2022/05/20 05:12:09;;;;;;;10.90;3.20;;;;;21.14;98431.00;;;;110947;1250;41273;-73
2022/05/20 05:14:47;;;;;;;9.40;2.80;;;;;20.68;98432.80;;;;110969;1251;41158;-71
2022/05/20 05:20:16;;;;;;;8.40;2.60;;;;;21.06;98437.80;;;;110853;1251;41247;-73
2022/05/20 05:22:44;;;;;;;6.20;2.40;;;;;21.20;98437.00;;;;110846;1252;41160;-71
2022/05/20 05:25:14;;;;;;;6.30;2.40;;;;;21.60;98438.80;;;;110956;1250;41183;-74
2022/05/20 05:27:43;;;;;;;11.10;2.80;;;;;21.94;98433.00;;;;110968;1251;41945;-74
2022/05/20 05:30:13;;;;;;;8.90;2.70;;;;;22.20;98434.80;;;;110905;1250;41899;-75
2022/05/20 05:32:42;;;;;;;9.10;2.60;;;;;22.04;98450.40;;;;110763;1250;41980;-75
2022/05/20 05:35:21;;;;;;;5.80;2.30;;;;;21.90;98438.20;;;;110666;1252;41141;-76
2022/05/20 05:37:51;;;;;;;6.10;2.50;;;;;22.00;98437.00;;;;110716;1251;41956;-76
2022/05/20 05:40:23;;;;;;;14.50;2.40;;;;;22.30;98432.00;;;;110984;1250;41249;-73
2022/05/20 05:42:54;;;;;;;6.50;2.40;;;;;22.70;98431.80;;;;110992;1250;41939;-74
2022/05/20 05:45:25;;;;;;;7.10;2.90;;;;;23.06;98436.60;;;;110978;1251;41129;-74
2022/05/20 05:47:58;;;;;;;;;;;;;23.40;98430.00;;;;110979;1250;41155;-73
2022/05/20 05:50:28;;;;;;;7.20;2.70;;;;;23.80;98429.40;;;;110678;1253;41259;-73
2022/05/20 05:53:00;;;;;;;9.10;2.50;;;;;24.00;98430.80;;;;110859;1251;41329;-72
2022/05/20 05:55:28;;;;;;;5.80;2.10;;;;;24.30;98429.40;;;;110954;1250;41442;-74
2022/05/20 05:57:57;;;;;;;6.10;2.20;;;;;24.50;98429.20;;;;110854;1250;42118;-74
2022/05/20 06:00:26;;;;;;;8.50;2.20;;;;;24.18;98425.00;;;;110848;1250;41316;-74
2022/05/20 06:02:55;;;;;;;7.00;2.40;;;;;24.24;98427.40;;;;110732;1253;41943;-74
2022/05/20 06:05:24;;;;;;;7.70;2.60;;;;;24.34;98430.60;;;;110846;1251;41898;-72
2022/05/20 06:07:53;;;;;;;9.10;2.60;;;;;24.44;98430.00;;;;110819;1250;41151;-74
2022/05/20 06:10:22;;;;;;;5.30;2.10;;;;;24.40;98435.20;;;;110973;1250;41262;-72
2022/05/20 06:12:52;;;;;;;6.00;1.80;;;;;24.50;98435.60;;;;110986;1250;41475;-74
2022/05/20 06:15:22;;;;;;;5.40;1.90;;;;;24.50;98432.80;;;;110721;1253;41951;-72
2022/05/20 06:17:52;;;;;;;4.20;1.80;;;;;24.62;98432.60;;;;111010;1250;41150;-75
2022/05/20 06:20:22;;;;;;;5.30;1.80;;;;;25.10;98435.40;;;;110708;1253;41183;-72
2022/05/20 06:22:51;;;;;;;4.70;1.80;;;;;25.62;98431.80;;;;110941;1249;41171;-72
2022/05/20 06:25:21;;;;;;;4.80;1.90;;;;;26.00;98423.00;;;;110867;1250;41881;-72
2022/05/20 06:27:50;;;;;;;4.40;1.60;;;;;26.30;98425.40;;;;110497;1252;377561;-73
2022/05/20 06:30:20;;;;;;;6.10;2.00;;;;;26.70;98428.40;;;;110871;1250;41263;-73
2022/05/20 06:32:49;;;;;;;;;;;;;27.10;98420.20;;;;110833;1252;40904;-73
2022/05/20 06:40:55;;;;;;;4.50;1.60;;;;;28.48;98410.60;;;;110764;1252;41171;-73
2022/05/20 06:43:25;;;;;;;6.10;1.80;;;;;28.94;98410.00;;;;110942;1251;41716;-74
2022/05/20 06:45:57;;;;;;;4.40;1.70;;;;;29.18;98410.00;;;;110917;1250;41162;-73
2022/05/20 06:48:52;;;;;;;5.10;1.50;;;;;29.00;98410.60;;;;110630;1253;41163;-74
2022/05/20 06:51:26;;;;;;;8.50;2.10;;;;;29.20;98411.60;;;;110966;1250;41178;-74
2022/05/20 06:53:57;;;;;;;8.20;2.20;;;;;29.00;98403.40;;;;110971;1251;42391;-74
2022/05/20 06:56:30;;;;;;;5.30;1.80;;;;;27.74;98406.40;;;;110912;1252;41154;-73
2022/05/20 06:59:03;;;;;;;4.30;1.60;;;;;27.20;98409.80;;;;110974;1250;41694;-75
2022/05/20 07:01:32;;;;;;;4.60;1.80;;;;;27.24;98409.40;;;;110806;1252;42480;-74
2022/05/20 07:04:01;;;;;;;4.30;1.80;;;;;27.60;98414.00;;;;110920;1250;41446;-74
2022/05/20 07:06:32;;;;;;;7.40;2.20;;;;;27.36;98412.60;;;;110633;1252;41162;-73
2022/05/20 07:09:02;;;;;;;6.40;1.60;;;;;26.78;98410.60;;;;110978;1250;41309;-74
2022/05/20 07:11:32;;;;;;;7.20;2.30;;;;;26.40;98410.20;;;;111005;1250;43216;-73
2022/05/20 07:14:01;;;;;;;5.20;1.80;;;;;25.26;98408.60;;;;110952;1250;41189;-73
2022/05/20 07:16:30;;;;;;;5.20;1.80;;;;;24.44;98411.60;;;;110890;1250;41682;-74
2022/05/20 07:18:59;;;;;;;5.80;2.00;;;;;24.10;98413.80;;;;110688;1253;41163;-72
2022/05/20 07:21:27;;;;;;;5.60;1.90;;;;;23.56;98412.60;;;;110822;1252;41165;-73
2022/05/20 07:23:56;;;;;;;2.70;1.30;;;;;22.90;98411.00;;;;110953;1250;41161;-74
2022/05/20 07:26:25;;;;;;;9.60;2.40;;;;;23.10;98410.80;;;;110911;1250;41599;-73
2022/05/20 07:28:54;;;;;;;7.00;2.30;;;;;22.90;98413.00;;;;110710;1250;42206;-74
2022/05/20 07:31:24;;;;;;;3.90;1.80;;;;;22.30;98419.60;;;;110896;1250;41581;-73
2022/05/20 07:33:53;;;;;;;9.40;2.40;;;;;22.22;98423.60;;;;110933;1250;41630;-74
2022/05/20 07:36:23;;;;;;;6.00;2.10;;;;;22.06;98419.40;;;;110650;1253;41394;-73
2022/05/20 07:38:52;;;;;;;6.80;2.00;;;;;22.14;98415.00;;;;110664;1253;41333;-71
2022/05/20 07:41:23;;;;;;;3.70;1.70;;;;;22.08;98410.80;;;;110686;1252;41258;-73
2022/05/20 07:43:52;;;;;;;6.60;2.20;;;;;21.90;98406.40;;;;110805;1251;41134;-72
2022/05/20 07:46:21;;;;;;;7.40;2.10;;;;;21.78;98408.60;;;;110834;1253;41297;-73
2022/05/20 07:48:50;;;;;;;6.10;2.30;;;;;21.78;98409.00;;;;110942;1250;41917;-70
2022/05/20 07:51:21;;;;;;;6.40;1.90;;;;;21.70;98409.80;;;;110837;1250;42368;-71
2022/05/20 07:54:02;;;;;;;3.70;1.70;;;;;21.42;98413.20;;;;110873;1250;42121;-74
2022/05/20 07:56:38;;;;;;;7.20;2.10;;;;;21.64;98413.00;;;;110928;1249;41245;-73
2022/05/20 07:59:13;;;;;;;4.90;1.90;;;;;21.90;98413.20;;;;111001;1250;41889;-71
2022/05/20 08:01:47;;;;;;;3.90;1.50;;;;;22.18;98418.80;;;;110562;1254;41596;-73
2022/05/20 08:05:05;;;;;;;4.90;1.90;;;;;22.30;98417.20;;;;110761;1251;41763;-72
2022/05/20 08:07:13;;;;;;;5.90;2.00;;;;;22.74;98418.60;;;;110905;1252;41147;-74
2022/05/20 08:09:42;;;;;;;4.40;1.90;;;;;23.38;98409.20;;;;110957;1250;41381;-70
2022/05/20 08:12:11;;;;;;;6.90;2.30;;;;;23.30;98405.20;;;;110673;1252;41275;-74
2022/05/20 08:14:48;;;;;;;6.80;1.90;;;;;23.20;98408.00;;;;110760;1250;41794;-73
2022/05/20 08:17:22;;;;;;;5.80;2.20;;;;;23.24;98395.80;;;;110915;1250;41407;-73
2022/05/20 08:19:52;;;;;;;6.40;2.10;;;;;23.44;98393.20;;;;110841;1253;40910;-73
2022/05/20 08:22:23;;;;;;;6.80;2.10;;;;;23.18;98396.60;;;;110881;1251;41871;-73
2022/05/20 08:24:54;;;;;;;4.70;1.80;;;;;23.00;98390.20;;;;110719;1253;41606;-73
2022/05/20 08:27:25;;;;;;;4.90;2.00;;;;;22.94;98386.80;;;;110890;1251;41704;-72
2022/05/20 08:29:54;;;;;;;6.30;2.00;;;;;23.26;98380.40;;;;110856;1252;41152;-72
2022/05/20 08:32:23;;;;;;;8.90;2.10;;;;;23.48;98378.40;;;;110601;1254;41795;-72
2022/05/20 08:34:52;;;;;;;4.10;1.60;;;;;23.56;98375.80;;;;110808;1252;40884;-74
2022/05/20 08:37:21;;;;;;;4.80;1.80;;;;;24.08;98374.60;;;;110817;1251;41142;-74
2022/05/20 08:39:50;;;;;;;6.60;2.00;;;;;24.42;98367.40;;;;110690;1253;41950;-74
2022/05/20 08:42:29;;;;;;;6.40;1.80;;;;;25.02;98367.80;;;;110842;1251;41183;-74
2022/05/20 08:45:05;;;;;;;5.60;1.70;;;;;25.48;98357.00;;;;110818;1251;41485;-74
2022/05/20 08:47:47;;;;;;;;;;;;;26.24;98352.60;;;;110707;1254;41404;-74
2022/05/20 08:50:24;;;;;;;5.90;1.70;;;;;26.70;98341.80;;;;110569;1254;42385;-73
2022/05/20 08:53:00;;;;;;;6.80;2.20;;;;;26.64;98340.40;;;;110502;1255;41268;-73
2022/05/20 08:55:33;;;;;;;5.10;1.80;;;;;27.00;98340.20;;;;110575;1253;42153;-75
2022/05/20 08:58:06;;;;;;;5.10;1.60;;;;;27.28;98335.80;;;;110663;1253;41551;-76
2022/05/20 09:00:37;;;;;;;5.00;1.80;;;;;27.68;98333.60;;;;110809;1253;41151;-74
2022/05/20 09:03:08;;;;;;;5.10;1.60;;;;;27.86;98329.60;;;;110771;1253;41273;-73
2022/05/20 09:05:42;;;;;;;4.20;1.60;;;;;27.88;98326.40;;;;110654;1252;42291;-73
2022/05/20 09:08:18;;;;;;;3.80;1.50;;;;;27.88;98324.60;;;;110908;1251;41140;-74
2022/05/20 09:10:59;;;;;;;4.10;1.50;;;;;28.22;98322.00;;;;110678;1253;41259;-73
2022/05/20 09:16:26;;;;;;;4.60;1.60;;;;;29.48;98323.40;;;;110858;1251;40962;-74
2022/05/20 09:19:06;;;;;;;7.00;1.90;;;;;29.32;98325.20;;;;110671;1252;42007;-75
2022/05/20 09:21:41;;;;;;;;;;;;;28.94;98323.20;;;;110744;1253;41657;-74
2022/05/20 09:24:21;;;;;;;7.70;2.00;;;;;29.08;98319.60;;;;110459;1253;41478;-74
2022/05/20 09:27:00;;;;;;;4.70;1.80;;;;;29.48;98313.00;;;;110676;1253;41148;-73
2022/05/20 09:29:38;;;;;;;5.70;1.60;;;;;29.32;98313.60;;;;110688;1252;42235;-74
2022/05/20 09:32:28;;;;;;;5.90;2.00;;;;;28.92;98299.60;;;;110737;1254;41157;-75
2022/05/20 09:35:19;;;;;;;4.50;1.90;;;;;29.14;98300.60;;;;110811;1251;41254;-73
2022/05/20 09:37:52;;;;;;;;;;;;;29.06;98301.00;;;;110731;1254;42590;-74
2022/05/20 09:40:36;;;;;;;5.60;1.90;;;;;28.08;98301.60;;;;110677;1252;41157;-73
2022/05/20 09:43:29;;;;;;;6.50;2.20;;;;;27.80;98298.80;;;;110611;1254;41274;-74
2022/05/20 09:46:00;;;;;;;7.30;2.50;;;;;27.84;98290.20;;;;110838;1251;41629;-73
2022/05/20 09:48:36;;;;;;;3.60;1.70;;;;;27.90;98285.80;;;;110868;1250;41271;-74
2022/05/20 09:51:16;;;;;;;5.40;2.10;;;;;28.60;98287.60;;;;110703;1253;41139;-73
2022/05/20 09:54:10;;;;;;;9.50;2.60;;;;;29.50;98284.00;;;;110653;1253;41250;-73
2022/05/20 09:57:06;;;;;;;5.80;2.00;;;;;29.72;98279.60;;;;110663;1252;41293;-76
2022/05/20 09:59:54;;;;;;;7.70;2.10;;;;;29.78;98278.00;;;;110593;1253;41157;-72
2022/05/20 10:02:39;;;;;;;7.80;1.80;;;;;30.30;98275.80;;;;110532;1254;41899;-73
2022/05/20 10:05:22;;;;;;;7.90;1.70;;;;;30.80;98267.60;;;;110662;1253;41159;-73
2022/05/20 10:08:12;;;;;;;4.50;1.80;;;;;31.30;98267.60;;;;110789;1251;40898;-75
2022/05/20 10:10:46;;;;;;;3.50;1.60;;;;;31.50;98258.80;;;;110701;1251;41186;-75
2022/05/20 10:13:23;;;;;;;3.00;1.30;;;;;31.60;98252.80;;;;110708;1253;42425;-73
2022/05/20 10:16:05;;;;;;;2.80;1.30;;;;;31.80;98254.40;;;;110837;1252;42375;-74
2022/05/20 10:18:59;;;;;;;3.20;1.20;;;;;32.00;98249.80;;;;110633;1253;41137;-76
2022/05/20 10:21:43;;;;;;;4.70;1.70;;;;;32.40;98244.40;;;;110635;1253;41399;-73
2022/05/20 10:24:33;;;;;;;5.30;1.40;;;;;32.30;98242.20;;;;110700;1250;41146;-74
2022/05/20 10:27:48;;;;;;;4.70;1.50;;;;;32.60;98240.80;;;;110892;1251;41153;-74
2022/05/20 10:33:22;;;;;;;5.20;1.50;;;;;31.90;98230.80;;;;110805;1252;43317;-73
2022/05/20 10:36:18;;;;;;;2.10;1.30;;;;;31.70;98226.00;;;;110838;1253;41267;-75
2022/05/20 10:39:02;;;;;;;3.00;1.30;;;;;31.72;98225.80;;;;110848;1252;41721;-75
2022/05/20 10:42:44;;;;;;;4.50;1.60;;;;;31.70;98223.60;;;;110757;1250;41172;-75
2022/05/20 10:48:59;;;;;;;6.00;1.60;;;;;30.84;98226.80;;;;110914;1250;42153;-74
2022/05/20 10:51:58;;;;;;;4.70;1.80;;;;;30.10;98220.20;;;;110720;1250;40818;-74
2022/05/20 10:55:13;;;;;;;4.00;1.80;;;;;30.24;98215.40;;;;110913;1250;41255;-74
2022/05/20 10:58:10;;;;;;;6.40;1.80;;;;;29.80;98210.00;;;;110808;1252;41529;-76
2022/05/20 11:00:52;;;;;;;6.80;1.80;;;;;30.08;98203.40;;;;110684;1253;41867;-75
2022/05/20 11:03:37;;;;;;;3.40;1.70;;;;;29.72;98201.00;;;;110896;1250;41263;-75
2022/05/20 11:07:01;;;;;;;3.70;1.60;;;;;29.94;98195.60;;;;110834;1251;41416;-76
2022/05/20 11:09:53;;;;;;;3.70;1.60;;;;;30.40;98193.40;;;;110341;1258;41189;-75
2022/05/20 11:12:34;;;;;;;4.70;1.60;;;;;31.56;98186.60;;;;110275;1257;41162;-75
2022/05/20 11:15:21;;;;;;;3.90;1.50;;;;;32.88;98180.20;;;;110128;1260;41623;-76
2022/05/20 11:18:02;;;;;;;5.80;1.80;;;;;33.16;98175.60;;;;110201;1259;42068;-75
2022/05/20 11:20:59;;;;;;;4.30;1.50;;;;;33.20;98178.80;;;;110179;1258;41649;-75
2022/05/20 11:23:51;;;;;;;7.70;1.70;;;;;33.76;98175.20;;;;110120;1259;41164;-74
2022/05/20 11:26:41;;;;;;;4.80;1.60;;;;;34.52;98164.20;;;;110148;1259;41399;-75
2022/05/20 11:29:27;;;;;;;6.30;1.70;;;;;35.22;98155.60;;;;110096;1261;41166;-74
2022/05/20 11:32:07;;;;;;;4.70;1.60;;;;;35.76;98158.40;;;;110277;1259;41164;-74
2022/05/20 11:35:16;;;;;;;4.00;1.60;;;;;36.54;98150.00;;;;109993;1259;41721;-75
2022/05/20 11:38:07;;;;;;;5.80;1.70;;;;;36.84;98145.40;;;;109879;1258;41843;-74
2022/05/20 11:41:08;;;;;;;5.40;1.80;;;;;37.02;98133.40;;;;110419;1252;40880;-73
2022/05/20 11:44:08;;;;;;;4.00;1.70;;;;;35.40;98124.00;;;;110629;1253;41170;-74
2022/05/20 11:47:05;;;;;;;3.40;1.40;;;;;33.76;98125.60;;;;110647;1253;41275;-74
2022/05/20 11:49:41;;;;;;;;;;;;;34.02;98127.20;;;;110684;1250;41156;-75
2022/05/20 11:52:33;;;;;;;3.50;1.50;;;;;34.84;98119.40;;;;110832;1250;40885;-74
2022/05/20 11:55:16;;;;;;;2.80;1.40;;;;;35.34;98110.00;;;;110847;1250;41157;-74
2022/05/20 11:57:50;;;;;;;3.10;1.40;;;;;35.46;98117.20;;;;110848;1250;41471;-73
2022/05/20 12:00:22;;;;;;;2.70;1.20;;;;;36.32;98115.40;;;;110844;1252;42375;-74
2022/05/20 12:03:16;;;;;;;3.60;1.30;;;;;36.30;98116.80;;;;110690;1251;41162;-74
2022/05/20 12:05:48;;;;;;;3.10;1.30;;;;;36.44;98106.80;;;;110787;1252;41724;-73
2022/05/20 12:08:46;;;;;;;2.50;1.30;;;;;36.64;98111.40;;;;110655;1254;41174;-75
2022/05/20 12:11:44;;;;;;;3.60;1.40;;;;;36.68;98105.60;;;;110789;1252;41605;-74
2022/05/20 12:14:21;;;;;;;2.50;1.20;;;;;37.10;98103.40;;;;110885;1250;41257;-75
2022/05/20 12:17:01;;;;;;;2.10;1.20;;;;;37.26;98101.40;;;;110677;1253;41147;-74
2022/05/20 12:25:36;;;;;;;3.80;1.50;;;;;35.70;98105.20;;;;110664;1253;41167;-75
2022/05/20 12:28:08;;;;;;;2.60;1.30;;;;;34.76;98094.00;;;;110850;1253;41984;-74
2022/05/20 12:30:39;;;;;;;2.60;1.20;;;;;33.82;98098.60;;;;110629;1253;41734;-74
2022/05/20 12:33:27;;;;;;;4.00;1.50;;;;;33.00;98095.60;;;;110719;1253;41195;-74
2022/05/20 12:36:25;;;;;;;2.90;1.30;;;;;32.04;98108.20;;;;110524;1254;41158;-75
2022/05/20 12:39:09;;;;;;;3.60;1.50;;;;;31.30;98105.00;;;;110607;1253;41671;-75
2022/05/20 12:41:52;;;;;;;3.20;1.30;;;;;30.90;98099.60;;;;110795;1252;41144;-76
2022/05/20 12:44:21;;;;;;;3.40;1.40;;;;;30.80;98095.20;;;;110636;1253;41618;-72
2022/05/20 12:47:15;;;;;;;4.90;1.40;;;;;30.60;98089.80;;;;110652;1253;41320;-74
2022/05/20 12:49:48;;;;;;;3.90;1.20;;;;;30.30;98086.20;;;;110916;1252;41266;-74
2022/05/20 12:52:32;;;;;;;2.70;1.20;;;;;30.12;98084.80;;;;110828;1252;41486;-75
2022/05/20 12:55:21;;;;;;;2.50;1.20;;;;;30.02;98084.00;;;;110685;1253;42310;-73
2022/05/20 12:57:58;;;;;;;2.70;1.40;;;;;29.90;98076.00;;;;110891;1251;41603;-74
2022/05/20 13:00:48;;;;;;;3.10;1.30;;;;;29.82;98068.60;;;;110848;1252;41444;-73
2022/05/20 13:03:32;;;;;;;3.00;1.40;;;;;29.38;98062.20;;;;110731;1253;41252;-75
2022/05/20 13:06:18;;;;;;;3.70;1.40;;;;;29.16;98062.40;;;;110710;1253;40975;-74
2022/05/20 13:08:51;;;;;;;3.50;1.50;;;;;28.82;98057.00;;;;110862;1252;41431;-73
2022/05/20 13:11:23;;;;;;;3.00;1.30;;;;;28.60;98053.40;;;;110565;1254;42385;-74
2022/05/20 13:13:59;;;;;;;3.80;1.60;;;;;28.30;98055.40;;;;110683;1253;42292;-74
2022/05/20 13:16:28;;;;;;;3.90;1.30;;;;;28.20;98050.60;;;;110853;1252;41900;-76
2022/05/20 13:19:09;;;;;;;4.20;1.60;;;;;28.12;98045.40;;;;110758;1253;41170;-78
2022/05/20 13:21:54;;;;;;;2.10;1.30;;;;;28.10;98042.20;;;;110461;1253;41259;-74
2022/05/20 13:24:29;;;;;;;4.10;1.40;;;;;28.00;98047.60;;;;110715;1253;41143;-74
2022/05/20 13:27:17;;;;;;;4.20;1.50;;;;;27.90;98040.60;;;;110605;1254;42418;-77
2022/05/20 13:29:51;;;;;;;2.30;1.30;;;;;27.80;98041.40;;;;110882;1253;41610;-76
2022/05/20 13:32:24;;;;;;;3.10;1.40;;;;;27.78;98036.80;;;;110717;1253;42387;-78
2022/05/20 13:34:54;;;;;;;2.90;1.40;;;;;27.70;98028.80;;;;110655;1252;41728;-74
2022/05/20 13:37:51;;;;;;;6.20;1.50;;;;;27.70;98027.40;;;;110728;1253;41161;-74
2022/05/20 13:40:26;;;;;;;3.70;1.30;;;;;27.64;98023.20;;;;110807;1252;41156;-74
2022/05/20 13:42:58;;;;;;;2.70;1.50;;;;;27.56;98022.20;;;;110691;1253;42087;-74